Time;durP1;ratioP1;P1;durP2;ratioP2;P2;SDS_P1;SDS_P2;PMS_P1;PMS_P2;Temp;Humidity;BMP_temperature;BMP_pressure;BME280_temperature;BME280_humidity;BME280_pressure;Samples;Min_cycle;Max_cycle;Signal;HPM_P1;HPM_P2
2022/12/05 00:01:56;;;;;;;4.83;2.87;;;8.70;97.60;;;;;;5076133;28;20040;-66
2022/12/05 00:04:22;;;;;;;5.40;2.77;;;8.70;97.60;;;;;;5075779;28;20115;-67
2022/12/05 00:06:48;;;;;;;4.73;3.13;;;8.70;97.60;;;;;;5076000;28;20044;-67
2022/12/05 00:09:13;;;;;;;5.10;2.73;;;8.80;97.60;;;;;;5075891;28;20068;-66
2022/12/05 00:11:41;;;;;;;4.10;3.10;;;8.70;97.60;;;;;;5076002;28;20100;-66
2022/12/05 00:14:08;;;;;;;6.87;3.00;;;8.70;97.80;;;;;;5075953;28;20043;-65
2022/12/05 00:16:37;;;;;;;4.43;3.20;;;8.70;97.90;;;;;;5075828;28;20116;-66
2022/12/05 00:19:04;;;;;;;3.90;3.03;;;8.70;97.90;;;;;;5075552;28;20044;-66
2022/12/05 00:21:32;;;;;;;5.00;3.07;;;8.70;98.00;;;;;;5075908;28;20025;-66
2022/12/05 00:23:59;;;;;;;6.27;2.77;;;8.70;98.00;;;;;;5075850;28;20082;-66
2022/12/05 00:26:26;;;;;;;4.77;2.73;;;8.60;98.00;;;;;;5075908;28;20064;-66
2022/12/05 00:28:52;;;;;;;5.63;2.83;;;8.60;98.00;;;;;;5075793;28;20039;-66
2022/12/05 00:31:20;;;;;;;7.43;2.90;;;8.60;98.10;;;;;;5075599;28;20112;-66
2022/12/05 00:33:47;;;;;;;7.03;2.53;;;8.60;98.10;;;;;;5075592;28;20037;-65
2022/12/05 00:36:24;;;;;;;4.53;2.77;;;8.60;98.00;;;;;;5075245;28;20040;-66
2022/12/05 00:38:51;;;;;;;7.10;2.77;;;8.60;98.00;;;;;;5075452;28;20063;-70
2022/12/05 00:41:20;;;;;;;3.63;2.53;;;8.60;98.00;;;;;;5075591;28;20041;-66
2022/12/05 00:43:45;;;;;;;10.97;2.70;;;8.60;97.90;;;;;;5075566;28;20037;-66
2022/12/05 00:46:14;;;;;;;7.03;2.30;;;8.60;97.90;;;;;;5074242;28;20042;-66
2022/12/05 00:48:40;;;;;;;2.90;1.90;;;8.60;97.80;;;;;;5075414;28;20102;-66
2022/12/05 00:51:10;;;;;;;3.97;2.03;;;8.60;97.60;;;;;;5075365;28;20032;-66
2022/12/05 00:53:37;;;;;;;3.07;1.47;;;8.60;97.20;;;;;;5075272;28;20028;-66
2022/12/05 00:56:04;;;;;;;3.37;1.60;;;8.50;97.00;;;;;;5075146;28;20094;-66
2022/12/05 00:58:31;;;;;;;2.67;1.30;;;8.60;96.90;;;;;;5075342;28;20033;-66
2022/12/05 01:00:56;;;;;;;2.37;1.20;;;8.50;96.60;;;;;;5075088;28;20041;-66
2022/12/05 01:03:22;;;;;;;1.97;1.23;;;8.50;96.60;;;;;;5075207;28;20037;-66
2022/12/05 01:05:48;;;;;;;4.53;1.20;;;8.50;96.60;;;;;;5075154;28;20123;-66
2022/12/05 01:08:13;;;;;;;3.07;1.30;;;8.50;96.60;;;;;;5075166;28;20025;-66
2022/12/05 01:10:39;;;;;;;4.70;1.57;;;8.40;96.50;;;;;;5074822;28;20033;-67
2022/12/05 01:13:04;;;;;;;2.83;1.57;;;8.40;96.40;;;;;;5074972;28;20495;-66
2022/12/05 01:15:30;;;;;;;5.00;1.90;;;8.40;96.60;;;;;;5074934;28;20109;-66
2022/12/05 01:17:56;;;;;;;4.43;1.80;;;8.40;96.70;;;;;;5074714;28;20075;-66
2022/12/05 01:20:21;;;;;;;4.20;2.30;;;8.40;96.70;;;;;;5074509;28;20573;-67
2022/12/05 01:22:47;;;;;;;3.23;2.03;;;8.40;96.70;;;;;;5074557;28;20154;-66
2022/12/05 01:25:13;;;;;;;4.07;2.00;;;8.40;96.70;;;;;;5074881;28;20043;-68
2022/12/05 01:27:38;;;;;;;4.23;1.60;;;8.40;96.80;;;;;;5074756;28;20039;-66
2022/12/05 01:30:05;;;;;;;2.27;1.50;;;8.30;96.70;;;;;;5074516;28;20036;-66
2022/12/05 01:32:31;;;;;;;6.43;1.60;;;8.30;96.80;;;;;;5074453;28;20029;-65
2022/12/05 01:34:57;;;;;;;3.00;1.40;;;8.40;96.80;;;;;;5074621;28;20033;-70
2022/12/05 01:37:22;;;;;;;2.83;1.60;;;8.30;96.80;;;;;;5074548;28;20078;-66
2022/12/05 01:39:48;;;;;;;4.20;1.57;;;8.30;96.90;;;;;;5074585;28;20048;-66
2022/12/05 01:42:14;;;;;;;3.83;1.53;;;8.30;97.00;;;;;;5074568;28;20028;-69
2022/12/05 01:44:42;;;;;;;3.87;1.67;;;8.30;97.00;;;;;;5074313;28;20115;-66
2022/12/05 01:47:08;;;;;;;2.93;1.53;;;8.30;97.10;;;;;;5074183;28;20028;-66
2022/12/05 01:49:40;;;;;;;4.33;1.60;;;8.30;97.20;;;;;;5073790;28;20044;-66
2022/12/05 01:52:22;;;;;;;2.00;1.67;;;8.30;97.30;;;;;;5074239;28;20028;-66
2022/12/05 01:54:53;;;;;;;3.25;1.90;;;8.30;97.40;;;;;;5074164;28;20487;-66
2022/12/05 01:57:19;;;;;;;3.90;1.50;;;8.30;97.30;;;;;;5073732;28;20172;-66
2022/12/05 01:59:57;;;;;;;3.50;1.50;;;8.30;97.20;;;;;;5071176;28;20127;-66
2022/12/05 02:02:23;;;;;;;2.70;1.20;;;8.30;97.10;;;;;;5071107;28;20435;-66
2022/12/05 02:04:58;;;;;;;2.73;1.40;;;8.30;97.00;;;;;;5072649;28;20135;-66
2022/12/05 02:07:24;;;;;;;2.20;1.30;;;8.30;96.80;;;;;;5074049;28;20368;-66
2022/12/05 02:09:50;;;;;;;1.63;1.30;;;8.30;96.60;;;;;;5073498;28;20051;-69
2022/12/05 02:12:19;;;;;;;3.67;1.40;;;8.30;96.60;;;;;;5073506;28;20119;-66
2022/12/05 02:15:17;;;;;;;3.63;1.47;;;8.30;96.60;;;;;;5073524;28;20073;-66
2022/12/05 02:17:58;;;;;;;2.43;1.20;;;8.30;96.50;;;;;;5073213;28;20044;-66
2022/12/05 02:20:44;;;;;;;1.83;0.97;;;8.30;96.80;;;;;;5073119;28;20048;-66
2022/12/05 02:23:41;;;;;;;4.50;1.30;;;8.30;96.40;;;;;;5073518;28;20108;-66
2022/12/05 02:26:19;;;;;;;3.77;1.50;;;8.30;96.30;;;;;;5063785;28;20040;-66
2022/12/05 02:29:11;;;;;;;3.10;1.57;;;8.30;96.20;;;;;;5073061;28;20094;-66
2022/12/05 02:32:05;;;;;;;2.33;1.40;;;8.30;96.30;;;;;;5073388;28;20024;-66
2022/12/05 02:34:49;;;;;;;2.93;1.40;;;8.30;96.30;;;;;;5073310;28;20740;-70
2022/12/05 02:37:27;;;;;;;3.00;1.30;;;8.30;96.20;;;;;;5073010;28;20036;-66
2022/12/05 02:40:20;;;;;;;2.40;1.30;;;8.20;96.40;;;;;;5072947;28;20127;-67
2022/12/05 02:42:50;;;;;;;7.00;1.42;;;8.20;96.50;;;;;;5072904;28;20036;-66
2022/12/05 02:45:18;;;;;;;3.40;1.60;;;8.20;96.40;;;;;;5072854;28;20178;-70
2022/12/05 02:47:55;;;;;;;4.90;1.60;;;8.20;96.40;;;;;;5073281;28;20111;-66
2022/12/05 02:50:24;;;;;;;4.50;1.47;;;8.20;96.50;;;;;;5073315;28;20086;-66
2022/12/05 02:52:54;;;;;;;6.13;1.60;;;8.20;96.50;;;;;;5073529;28;20116;-66
2022/12/05 02:55:22;;;;;;;3.83;1.20;;;8.20;96.50;;;;;;5073227;28;20029;-70
2022/12/05 02:57:54;;;;;;;3.73;1.67;;;8.20;96.50;;;;;;5073050;28;20029;-66
2022/12/05 03:00:20;;;;;;;2.05;1.55;;;8.30;96.70;;;;;;5072163;28;20044;-69
2022/12/05 03:02:47;;;;;;;2.73;1.50;;;8.20;96.70;;;;;;5073103;28;20417;-66
2022/12/05 03:05:37;;;;;;;1.97;1.40;;;8.30;96.90;;;;;;5073221;28;20078;-66
2022/12/05 03:08:05;;;;;;;3.23;1.70;;;8.20;97.00;;;;;;5072996;28;20029;-66
2022/12/05 03:10:32;;;;;;;3.60;1.80;;;8.20;97.00;;;;;;5073060;28;20040;-66
2022/12/05 03:13:05;;;;;;;3.33;1.67;;;8.20;97.00;;;;;;5072892;28;20099;-66
2022/12/05 03:15:37;;;;;;;4.57;1.40;;;8.20;97.00;;;;;;5072798;28;20038;-66
2022/12/05 03:18:15;;;;;;;2.13;1.50;;;8.30;97.20;;;;;;5072932;28;20413;-66
2022/12/05 03:20:49;;;;;;;4.43;1.50;;;8.30;97.20;;;;;;5072734;28;20087;-66
2022/12/05 03:23:23;;;;;;;3.10;2.00;;;8.30;97.20;;;;;;5072851;28;20518;-65
2022/12/05 03:26:13;;;;;;;9.07;2.00;;;8.30;97.20;;;;;;5072671;28;20033;-66
2022/12/05 03:28:47;;;;;;;3.83;1.73;;;8.30;97.10;;;;;;5071513;28;20042;-66
2022/12/05 03:31:19;;;;;;;2.80;2.00;;;8.30;97.30;;;;;;5072767;28;20032;-66
2022/12/05 03:33:49;;;;;;;5.93;1.90;;;8.30;97.40;;;;;;5072748;28;20090;-66
2022/12/05 03:36:22;;;;;;;5.37;2.00;;;8.30;97.70;;;;;;5072928;28;20554;-66
2022/12/05 03:39:17;;;;;;;6.65;2.30;;;8.30;97.80;;;;;;5072786;28;20087;-66
2022/12/05 03:41:58;;;;;;;2.63;1.77;;;8.30;98.00;;;;;;5072888;28;20098;-66
2022/12/05 03:44:32;;;;;;;4.73;2.00;;;8.30;98.00;;;;;;5072641;28;20044;-70
2022/12/05 03:47:32;;;;;;;4.83;1.80;;;8.30;98.00;;;;;;5072905;28;20050;-66
2022/12/05 03:50:09;;;;;;;4.83;1.90;;;8.30;97.90;;;;;;5072921;28;20032;-66
2022/12/05 03:52:45;;;;;;;3.53;1.30;;;8.40;97.80;;;;;;5072582;28;20040;-66
2022/12/05 03:55:13;;;;;;;3.03;1.40;;;8.40;97.90;;;;;;5072540;28;20086;-69
2022/12/05 03:58:02;;;;;;;3.53;1.80;;;8.40;97.40;;;;;;5072471;28;20040;-66
2022/12/05 04:00:32;;;;;;;4.93;1.47;;;8.40;97.30;;;;;;5069516;28;20049;-66
2022/12/05 04:03:25;;;;;;;2.60;1.30;;;8.40;97.10;;;;;;5069693;28;20044;-66
2022/12/05 04:06:00;;;;;;;2.90;1.30;;;8.50;96.90;;;;;;5069770;28;20083;-68
2022/12/05 04:08:30;;;;;;;10.27;2.20;;;8.50;96.80;;;;;;5072258;28;20045;-66
2022/12/05 04:11:13;;;;;;;7.13;1.47;;;8.50;96.70;;;;;;5072965;28;20104;-66
2022/12/05 04:14:04;;;;;;;2.40;1.30;;;8.50;96.60;;;;;;5076131;28;20489;-66
2022/12/05 04:22:33;;;;;;;2.83;1.20;;;8.50;96.60;;;;;;5076186;28;20109;-70
2022/12/05 04:27:57;;;;;;;2.47;1.40;;;8.50;96.80;;;;;;5075912;28;20044;-66
2022/12/05 04:30:26;;;;;;;2.90;1.57;;;8.50;96.90;;;;;;5076081;28;20044;-70
2022/12/05 04:32:52;;;;;;;7.47;1.53;;;8.50;97.10;;;;;;5075629;28;20041;-70
2022/12/05 04:35:33;;;;;;;4.87;1.77;;;8.50;97.20;;;;;;5075675;28;20039;-66
2022/12/05 04:38:05;;;;;;;5.70;1.60;;;8.50;97.20;;;;;;5074290;28;20037;-66
2022/12/05 04:40:51;;;;;;;3.67;1.40;;;8.60;97.20;;;;;;5075321;28;20517;-65
2022/12/05 04:43:18;;;;;;;2.40;1.30;;;8.60;97.40;;;;;;5075449;28;20414;-66
2022/12/05 04:45:45;;;;;;;3.93;1.80;;;8.60;97.50;;;;;;5075766;28;20397;-66
2022/12/05 04:48:15;;;;;;;2.63;1.63;;;8.60;97.30;;;;;;5075428;28;20390;-66
2022/12/05 04:50:43;;;;;;;5.47;1.53;;;8.60;97.30;;;;;;5075530;28;20029;-66
2022/12/05 04:53:11;;;;;;;3.37;2.10;;;8.60;97.50;;;;;;5075219;28;20037;-66
2022/12/05 04:55:41;;;;;;;3.47;1.90;;;8.60;97.60;;;;;;5075257;28;20037;-67
2022/12/05 04:58:11;;;;;;;3.63;1.70;;;8.60;97.60;;;;;;5075311;28;20120;-66
2022/12/05 05:01:12;;;;;;;3.93;2.13;;;8.60;97.70;;;;;;5074909;28;20127;-66
2022/12/05 05:03:58;;;;;;;4.13;2.00;;;8.60;98.00;;;;;;5074743;28;20040;-66
2022/12/05 05:06:25;;;;;;;7.93;2.67;;;8.60;98.10;;;;;;5075131;28;20593;-70
2022/12/05 05:08:56;;;;;;;6.07;2.50;;;8.70;98.40;;;;;;5075023;28;20033;-66
2022/12/05 05:11:24;;;;;;;7.97;2.87;;;8.70;98.30;;;;;;5075015;28;20052;-69
2022/12/05 05:13:51;;;;;;;5.77;3.10;;;8.60;98.30;;;;;;5075008;28;20029;-66
2022/12/05 05:16:22;;;;;;;7.27;3.00;;;8.70;98.70;;;;;;5074904;28;20482;-66
2022/12/05 05:18:49;;;;;;;8.37;3.10;;;8.70;98.70;;;;;;5074843;28;20050;-66
2022/12/05 05:21:22;;;;;;;8.17;3.30;;;8.70;98.80;;;;;;5074787;28;20084;-66
2022/12/05 05:23:47;;;;;;;;;;;8.70;98.80;;;;;;5074317;28;20445;-66
2022/12/05 05:26:13;;;;;;;5.50;2.47;;;8.70;98.90;;;;;;5074838;28;19904;-66
2022/12/05 05:28:39;;;;;;;9.20;2.77;;;8.70;98.90;;;;;;5074712;28;20076;-66
2022/12/05 05:31:05;;;;;;;11.23;2.93;;;8.70;98.80;;;;;;5074539;28;20379;-66
2022/12/05 05:33:32;;;;;;;7.57;3.27;;;8.70;99.00;;;;;;5074764;28;20044;-66
2022/12/05 05:36:10;;;;;;;5.77;2.87;;;8.70;98.90;;;;;;5074440;28;20439;-66
2022/12/05 05:38:40;;;;;;;4.43;2.77;;;8.70;99.00;;;;;;5074550;28;20025;-66
2022/12/05 05:41:12;;;;;;;5.63;2.50;;;8.70;99.20;;;;;;5074354;28;20040;-66
2022/12/05 05:43:39;;;;;;;7.63;2.55;;;8.70;99.40;;;;;;5074411;28;20427;-66
2022/12/05 05:46:05;;;;;;;6.27;2.87;;;8.70;99.70;;;;;;5074234;28;20036;-70
2022/12/05 05:48:30;;;;;;;6.60;2.80;;;8.80;99.60;;;;;;5073859;28;20478;-66
2022/12/05 05:51:00;;;;;;;5.77;3.03;;;8.70;99.80;;;;;;5072733;28;20546;-66
2022/12/05 05:53:26;;;;;;;6.40;3.23;;;8.70;99.80;;;;;;5074166;28;20548;-66
2022/12/05 05:55:52;;;;;;;7.20;3.07;;;8.80;99.90;;;;;;5074129;28;20067;-67
2022/12/05 05:58:17;;;;;;;5.87;3.73;;;8.70;99.90;;;;;;5072723;28;20151;-70
2022/12/05 06:00:43;;;;;;;5.47;3.13;;;8.70;99.90;;;;;;5073844;28;20398;-66
2022/12/05 06:03:08;;;;;;;7.77;3.37;;;8.70;99.90;;;;;;5073689;28;20519;-66
2022/12/05 06:05:34;;;;;;;7.67;3.37;;;8.80;99.90;;;;;;5073949;28;20116;-66
2022/12/05 06:08:00;;;;;;;5.30;2.97;;;8.70;99.80;;;;;;5073681;28;20063;-69
2022/12/05 06:10:26;;;;;;;6.93;3.60;;;8.80;99.80;;;;;;5071007;28;20119;-66
2022/12/05 06:12:51;;;;;;;7.70;3.63;;;8.80;99.80;;;;;;5071015;28;20107;-67
2022/12/05 06:15:17;;;;;;;10.67;4.03;;;8.80;99.60;;;;;;5073124;28;20032;-66
2022/12/05 06:17:43;;;;;;;7.00;3.40;;;8.80;99.50;;;;;;5073538;28;20449;-66
2022/12/05 06:20:09;;;;;;;7.53;4.80;;;8.80;99.50;;;;;;5073572;28;20555;-65
2022/12/05 06:22:35;;;;;;;11.97;8.20;;;8.90;99.40;;;;;;5073458;28;20091;-66
2022/12/05 06:25:00;;;;;;;13.53;6.33;;;8.90;99.30;;;;;;5072558;28;20032;-66
2022/12/05 06:27:28;;;;;;;9.60;4.63;;;8.90;99.30;;;;;;5072272;28;20037;-66
2022/12/05 06:29:54;;;;;;;11.30;8.30;;;8.90;99.20;;;;;;5073228;28;20094;-66
2022/12/05 06:32:19;;;;;;;8.90;5.00;;;8.90;99.30;;;;;;5073108;28;20032;-66
2022/12/05 06:34:45;;;;;;;8.97;6.00;;;8.90;99.30;;;;;;5072927;28;20047;-66
2022/12/05 06:37:11;;;;;;;14.27;8.53;;;8.90;99.20;;;;;;5073368;28;20037;-66
2022/12/05 06:39:37;;;;;;;7.17;5.73;;;8.90;99.30;;;;;;5073142;28;20044;-65
2022/12/05 06:42:03;;;;;;;9.70;4.80;;;8.90;99.10;;;;;;5073134;28;20155;-66
2022/12/05 06:44:28;;;;;;;7.73;4.27;;;8.90;99.20;;;;;;5073079;28;20048;-66
2022/12/05 06:46:54;;;;;;;7.53;4.57;;;8.90;99.40;;;;;;5073128;28;20401;-70
2022/12/05 06:49:24;;;;;;;8.80;4.90;;;9.00;99.60;;;;;;5073110;28;20036;-70
2022/12/05 06:51:50;;;;;;;10.40;6.50;;;8.90;99.70;;;;;;5073108;28;20029;-66
2022/12/05 06:54:16;;;;;;;14.30;5.73;;;9.00;99.80;;;;;;5073320;28;20364;-66
2022/12/05 06:56:42;;;;;;;8.40;5.10;;;9.00;99.90;;;;;;5073069;28;20040;-66
2022/12/05 06:59:07;;;;;;;7.50;4.40;;;9.00;99.80;;;;;;5072925;28;20034;-66
2022/12/05 07:01:42;;;;;;;8.53;4.47;;;9.00;99.70;;;;;;5072916;28;20037;-70
2022/12/05 07:04:14;;;;;;;9.77;4.20;;;9.00;99.60;;;;;;5073249;28;20116;-66
2022/12/05 07:06:42;;;;;;;8.10;4.10;;;9.00;99.50;;;;;;5073313;28;20056;-67
2022/12/05 07:09:07;;;;;;;11.67;4.50;;;9.00;99.50;;;;;;5073074;28;20286;-66
2022/12/05 07:11:34;;;;;;;6.37;3.97;;;8.90;99.50;;;;;;5072950;28;20447;-66
2022/12/05 07:14:00;;;;;;;6.40;4.67;;;9.00;99.50;;;;;;5072869;28;20037;-66
2022/12/05 07:16:25;;;;;;;9.20;4.43;;;9.00;99.40;;;;;;5072895;28;20049;-66
2022/12/05 07:18:51;;;;;;;11.27;4.70;;;9.00;99.40;;;;;;5072502;28;20053;-66
2022/12/05 07:21:17;;;;;;;8.53;4.67;;;9.00;99.50;;;;;;5072729;28;20414;-66
2022/12/05 07:23:45;;;;;;;11.27;4.67;;;9.10;99.50;;;;;;5073021;28;20086;-66
2022/12/05 07:26:13;;;;;;;10.67;5.23;;;9.10;99.80;;;;;;5072798;28;20100;-70
2022/12/05 07:28:39;;;;;;;14.93;4.63;;;9.10;99.80;;;;;;5072537;28;20056;-66
2022/12/05 07:31:13;;;;;;;10.03;5.10;;;9.10;99.90;;;;;;5073007;28;20025;-66
2022/12/05 07:33:39;;;;;;;9.23;4.07;;;9.20;99.90;;;;;;5072971;28;20089;-69
2022/12/05 07:36:25;;;;;;;7.80;4.10;;;9.20;99.90;;;;;;5072305;28;20036;-68
2022/12/05 07:38:55;;;;;;;9.93;4.20;;;9.20;99.90;;;;;;5072276;28;20028;-67
2022/12/05 07:41:29;;;;;;;13.03;4.30;;;9.30;99.90;;;;;;5072218;28;20044;-67
2022/12/05 07:43:56;;;;;;;14.53;6.70;;;9.30;99.90;;;;;;5072091;28;20049;-65
2022/12/05 07:46:23;;;;;;;12.50;6.67;;;9.30;99.90;;;;;;5073562;28;20024;-66
2022/12/05 07:48:49;;;;;;;8.40;5.37;;;9.40;99.90;;;;;;5076247;28;20483;-66
2022/12/05 07:51:15;;;;;;;8.97;5.60;;;9.30;99.90;;;;;;5076496;28;20050;-66
2022/12/05 07:53:42;;;;;;;12.93;6.63;;;9.30;99.90;;;;;;5076273;28;20051;-66
2022/12/05 07:56:10;;;;;;;16.87;12.60;;;9.30;99.90;;;;;;5075040;28;20033;-68
2022/12/05 07:58:36;;;;;;;12.93;7.17;;;9.30;99.90;;;;;;5076181;28;20036;-66
2022/12/05 08:01:23;;;;;;;13.27;6.20;;;9.30;99.90;;;;;;5076068;28;20150;-65
2022/12/05 08:03:49;;;;;;;14.83;8.50;;;9.30;99.90;;;;;;5075887;28;20491;-69
2022/12/05 08:06:23;;;;;;;9.80;5.20;;;9.30;99.90;;;;;;5076006;28;20425;-66
2022/12/05 08:08:50;;;;;;;6.30;3.13;;;9.20;99.90;;;;;;5075987;28;20029;-66
2022/12/05 08:11:20;;;;;;;7.00;3.53;;;9.20;99.90;;;;;;5075851;28;20032;-66
2022/12/05 08:13:46;;;;;;;8.17;3.47;;;9.20;99.90;;;;;;5076285;28;20428;-65
2022/12/05 08:16:16;;;;;;;7.03;3.33;;;9.20;99.90;;;;;;5076038;28;20047;-67
2022/12/05 08:18:42;;;;;;;18.20;7.00;;;9.20;99.90;;;;;;5075715;28;20598;-66
2022/12/05 08:21:13;;;;;;;9.20;5.97;;;9.20;99.90;;;;;;5075696;28;20116;-66
2022/12/05 08:23:40;;;;;;;5.47;3.30;;;9.20;99.90;;;;;;5075953;28;20111;-65
2022/12/05 08:26:14;;;;;;;8.77;3.93;;;9.20;99.90;;;;;;5075962;28;20028;-67
2022/12/05 08:28:41;;;;;;;7.10;2.90;;;9.20;99.90;;;;;;5075717;28;20390;-65
2022/12/05 08:31:10;;;;;;;4.80;3.20;;;9.20;99.90;;;;;;5075566;28;20028;-67
2022/12/05 08:33:36;;;;;;;5.23;3.00;;;9.20;99.90;;;;;;5075549;28;20040;-66
2022/12/05 08:36:04;;;;;;;6.80;3.30;;;9.30;99.90;;;;;;5075611;28;20058;-65
2022/12/05 08:38:31;;;;;;;15.73;3.87;;;9.30;99.90;;;;;;5073542;28;20032;-65
2022/12/05 08:41:00;;;;;;;14.27;7.50;;;9.30;99.90;;;;;;5074691;28;20040;-66
2022/12/05 08:43:26;;;;;;;10.83;5.30;;;9.30;99.90;;;;;;5049666;28;20181;-66
2022/12/05 08:45:52;;;;;;;8.17;3.57;;;9.30;99.90;;;;;;5074424;28;20029;-66
2022/12/05 08:48:18;;;;;;;6.10;3.50;;;9.30;99.90;;;;;;5073078;28;20029;-66
2022/12/05 08:50:44;;;;;;;6.60;3.27;;;9.30;99.90;;;;;;5074860;28;20037;-66
2022/12/05 08:53:10;;;;;;;10.33;2.77;;;9.30;99.90;;;;;;5074747;28;20045;-66
2022/12/05 08:55:37;;;;;;;7.23;3.10;;;9.30;99.90;;;;;;5075069;28;20035;-66
2022/12/05 08:58:03;;;;;;;6.27;3.40;;;9.30;99.90;;;;;;5074498;28;20044;-67
2022/12/05 09:00:29;;;;;;;7.10;2.90;;;9.30;99.90;;;;;;5074537;28;20048;-66
2022/12/05 09:02:54;;;;;;;7.90;3.50;;;9.40;99.90;;;;;;5074457;28;20517;-66
2022/12/05 09:05:22;;;;;;;7.17;3.93;;;9.40;99.90;;;;;;5074422;28;20533;-67
2022/12/05 09:07:48;;;;;;;7.47;3.50;;;9.40;99.90;;;;;;5074218;28;20033;-66
2022/12/05 09:10:13;;;;;;;5.53;2.90;;;9.40;99.90;;;;;;5074276;28;20036;-66
2022/12/05 09:12:39;;;;;;;9.40;3.13;;;9.40;99.90;;;;;;5074265;28;20039;-66
2022/12/05 09:15:06;;;;;;;6.10;2.63;;;9.40;99.90;;;;;;5074390;28;20040;-66
2022/12/05 09:17:32;;;;;;;5.87;3.00;;;9.40;99.90;;;;;;5074173;28;20048;-65
2022/12/05 09:19:58;;;;;;;4.67;2.73;;;9.40;99.90;;;;;;5074221;28;20045;-65
2022/12/05 09:22:24;;;;;;;6.20;3.30;;;9.40;99.90;;;;;;5074272;28;20044;-66
2022/12/05 09:24:49;;;;;;;8.30;3.23;;;9.40;99.90;;;;;;5074333;28;20040;-66
2022/12/05 09:27:15;;;;;;;8.90;3.87;;;9.40;99.90;;;;;;5074345;28;20051;-66
2022/12/05 09:29:42;;;;;;;8.33;3.47;;;9.40;99.90;;;;;;5074771;28;20364;-67
2022/12/05 09:32:08;;;;;;;6.33;2.90;;;9.50;99.90;;;;;;5074543;28;20122;-67
2022/12/05 09:34:35;;;;;;;5.17;3.10;;;9.50;99.90;;;;;;5074510;28;20042;-66
2022/12/05 09:37:00;;;;;;;6.07;2.77;;;9.50;99.90;;;;;;5074334;28;20037;-65
2022/12/05 09:39:27;;;;;;;6.80;3.17;;;9.50;99.90;;;;;;5074320;28;20043;-66
2022/12/05 09:42:06;;;;;;;26.77;4.10;;;9.50;99.90;;;;;;5073129;28;20375;-66
2022/12/05 09:44:44;;;;;;;8.87;4.90;;;9.50;99.90;;;;;;5074250;28;20162;-67
2022/12/05 09:47:22;;;;;;;6.03;3.67;;;9.50;99.90;;;;;;5074364;28;20043;-66
2022/12/05 09:50:21;;;;;;;8.70;4.30;;;9.50;99.90;;;;;;5074007;28;20391;-66
2022/12/05 09:53:09;;;;;;;8.37;4.50;;;9.50;99.90;;;;;;5066715;28;20501;-66
2022/12/05 09:55:41;;;;;;;10.73;4.70;;;9.50;99.90;;;;;;5074071;28;20498;-67
2022/12/05 09:58:18;;;;;;;7.90;4.20;;;9.60;99.90;;;;;;5074187;28;20145;-66
2022/12/05 10:00:45;;;;;;;10.90;4.93;;;9.60;99.90;;;;;;5073911;28;20048;-67
2022/12/05 10:03:34;;;;;;;7.87;4.77;;;9.70;99.90;;;;;;5074032;28;20104;-66
2022/12/05 10:06:21;;;;;;;17.83;6.47;;;9.80;99.90;;;;;;5073980;28;20108;-66
2022/12/05 10:09:11;;;;;;;11.87;7.23;;;9.90;99.90;;;;;;5073288;28;20021;-66
2022/12/05 10:12:03;;;;;;;9.57;5.13;;;9.90;99.90;;;;;;5073823;28;20367;-66
2022/12/05 10:14:28;;;;;;;11.35;5.10;;;10.00;99.90;;;;;;5073594;28;20024;-65
2022/12/05 10:16:59;;;;;;;7.37;3.97;;;10.00;99.90;;;;;;5073748;28;20512;-66
2022/12/05 10:19:41;;;;;;;7.97;4.13;;;10.00;99.90;;;;;;5073419;28;20119;-66
2022/12/05 10:22:07;;;;;;;9.52;4.65;;;10.00;99.90;;;;;;5073187;28;20045;-66
2022/12/05 10:24:37;;;;;;;6.43;3.97;;;10.10;99.90;;;;;;5073389;28;20037;-66
2022/12/05 10:27:06;;;;;;;7.38;4.38;;;10.10;99.90;;;;;;5073340;28;20128;-67
2022/12/05 10:29:31;;;;;;;7.95;3.50;;;10.10;99.90;;;;;;5073388;28;20060;-66
2022/12/05 10:32:15;;;;;;;7.73;3.00;;;10.20;99.90;;;;;;5072900;28;20060;-67
2022/12/05 10:34:44;;;;;;;6.80;2.83;;;10.20;99.90;;;;;;5073231;28;20033;-67
2022/12/05 10:37:20;;;;;;;7.30;2.88;;;10.30;99.90;;;;;;5073277;28;20040;-66
2022/12/05 10:39:48;;;;;;;6.88;2.70;;;10.30;99.90;;;;;;5072287;28;20040;-66
2022/12/05 10:42:30;;;;;;;6.20;2.80;;;10.40;99.90;;;;;;5071237;28;20037;-67
2022/12/05 10:45:01;;;;;;;3.88;2.40;;;10.40;99.90;;;;;;5072675;28;20033;-66
2022/12/05 10:47:28;;;;;;;4.78;3.15;;;10.40;99.90;;;;;;5072644;28;20039;-67
2022/12/05 10:49:56;;;;;;;5.05;2.88;;;10.40;99.90;;;;;;5072706;28;20028;-66
2022/12/05 10:52:22;;;;;;;4.97;2.67;;;10.40;99.90;;;;;;5072861;28;20033;-66
2022/12/05 10:54:54;;;;;;;4.85;2.67;;;10.40;99.90;;;;;;5072963;28;20044;-66
2022/12/05 10:57:26;;;;;;;5.97;2.97;;;10.40;99.90;;;;;;5073067;28;20548;-66
2022/12/05 10:59:53;;;;;;;4.55;2.22;;;10.40;99.90;;;;;;5072666;28;20716;-66
2022/12/05 11:02:28;;;;;;;5.28;2.50;;;10.40;99.90;;;;;;5073082;28;20025;-67
2022/12/05 11:04:55;;;;;;;3.53;1.98;;;10.40;99.90;;;;;;5073027;28;20510;-67
2022/12/05 11:07:30;;;;;;;4.68;2.67;;;10.50;99.90;;;;;;5072689;28;20051;-66
2022/12/05 11:09:57;;;;;;;5.55;2.67;;;10.50;99.90;;;;;;5071555;28;20036;-67
2022/12/05 11:12:28;;;;;;;6.20;3.08;;;10.50;99.90;;;;;;5072808;28;20025;-67
2022/12/05 11:14:53;;;;;;;11.90;4.05;;;10.50;99.90;;;;;;5073161;28;20037;-67
2022/12/05 11:17:34;;;;;;;7.47;4.32;;;10.50;99.90;;;;;;5072610;28;20087;-66
2022/12/05 11:20:02;;;;;;;8.75;4.47;;;10.60;99.90;;;;;;5072819;28;20060;-67
2022/12/05 11:22:33;;;;;;;10.88;4.85;;;10.60;99.90;;;;;;5076122;28;20029;-67
2022/12/05 11:24:59;;;;;;;9.95;5.00;;;10.60;99.90;;;;;;5076994;28;20064;-67
2022/12/05 11:27:31;;;;;;;8.70;4.07;;;10.60;99.90;;;;;;5077052;28;20032;-67
2022/12/05 11:30:13;;;;;;;6.40;3.85;;;10.60;99.90;;;;;;5077043;28;20441;-66
2022/12/05 11:32:39;;;;;;;9.82;4.82;;;10.60;99.90;;;;;;5076788;28;20364;-66
2022/12/05 11:35:12;;;;;;;10.60;5.03;;;10.60;99.90;;;;;;5076711;28;20032;-66
2022/12/05 11:37:52;;;;;;;7.82;4.68;;;10.60;99.90;;;;;;5076590;28;20367;-66
2022/12/05 11:40:32;;;;;;;7.65;4.43;;;10.60;99.90;;;;;;5076495;28;20051;-67
2022/12/05 11:43:06;;;;;;;7.45;4.50;;;10.60;99.90;;;;;;5076508;28;20387;-66
2022/12/05 11:45:57;;;;;;;8.52;4.53;;;10.60;99.90;;;;;;5076508;28;20043;-67
2022/12/05 11:48:50;;;;;;;8.95;4.90;;;10.50;99.90;;;;;;5076410;28;20092;-66
2022/12/05 11:51:39;;;;;;;11.75;4.32;;;10.50;99.90;;;;;;5076344;28;20040;-67
2022/12/05 11:54:26;;;;;;;9.85;4.07;;;10.50;99.90;;;;;;5076177;28;20391;-66
2022/12/05 11:56:55;;;;;;;8.57;4.00;;;10.50;99.90;;;;;;5076446;28;20028;-67
2022/12/05 11:59:46;;;;;;;10.57;4.25;;;10.50;99.90;;;;;;5076364;28;20024;-66
2022/12/05 12:02:20;;;;;;;11.18;4.72;;;10.50;99.90;;;;;;5076252;28;20029;-66
2022/12/05 12:05:02;;;;;;;6.78;4.57;;;10.50;99.90;;;;;;5075900;28;20036;-66
2022/12/05 12:07:50;;;;;;;9.13;4.30;;;10.50;99.90;;;;;;5076390;28;20382;-66
2022/12/05 12:10:32;;;;;;;8.15;4.00;;;10.50;99.90;;;;;;5075548;28;20053;-66
2022/12/05 12:13:22;;;;;;;10.40;4.05;;;10.50;99.90;;;;;;5075736;28;20032;-67
2022/12/05 12:16:05;;;;;;;8.52;4.20;;;10.40;99.90;;;;;;5071177;28;20024;-67
2022/12/05 12:18:40;;;;;;;8.68;4.80;;;10.50;99.90;;;;;;5075367;28;20513;-66
2022/12/05 12:21:31;;;;;;;7.72;3.75;;;10.40;99.90;;;;;;5073832;28;20047;-67
2022/12/05 12:24:06;;;;;;;6.13;3.75;;;10.40;99.90;;;;;;5075031;28;20075;-67
2022/12/05 12:26:52;;;;;;;8.50;4.22;;;10.40;99.90;;;;;;5075345;28;20094;-67
2022/12/05 12:29:35;;;;;;;6.13;3.75;;;10.40;99.90;;;;;;5075099;28;20056;-67
2022/12/05 12:32:28;;;;;;;9.70;4.53;;;10.40;99.90;;;;;;5072225;28;20036;-67
2022/12/05 12:35:26;;;;;;;8.57;4.20;;;10.50;99.90;;;;;;5074592;28;20032;-67
2022/12/05 12:38:24;;;;;;;14.15;4.72;;;10.50;99.90;;;;;;5072637;28;20036;-67
2022/12/05 12:40:53;;;;;;;14.65;6.38;;;10.50;99.90;;;;;;5075046;28;20125;-66
2022/12/05 12:43:33;;;;;;;10.32;5.32;;;10.50;99.90;;;;;;5074893;28;20085;-66
2022/12/05 12:46:29;;;;;;;10.50;5.35;;;10.50;99.90;;;;;;5073905;28;20047;-66
2022/12/05 12:49:07;;;;;;;11.20;6.60;;;10.50;99.90;;;;;;5073308;28;20383;-66
2022/12/05 12:51:33;;;;;;;11.38;6.43;;;10.50;99.90;;;;;;5073102;28;20082;-66
2022/12/05 12:54:02;;;;;;;14.95;6.10;;;10.50;99.90;;;;;;5074619;28;20123;-67
2022/12/05 12:56:53;;;;;;;12.82;6.30;;;10.50;99.90;;;;;;5072094;28;20119;-67
2022/12/05 12:59:45;;;;;;;15.75;6.78;;;10.50;99.90;;;;;;5070484;28;20056;-68
2022/12/05 13:02:21;;;;;;;11.75;6.13;;;10.50;99.90;;;;;;5053609;28;20574;-67
2022/12/05 13:05:18;;;;;;;13.65;6.22;;;10.50;99.90;;;;;;5054311;28;20131;-67
2022/12/05 13:07:50;;;;;;;12.25;5.88;;;10.50;99.90;;;;;;5054816;28;20029;-66
2022/12/05 13:10:32;;;;;;;9.67;6.27;;;10.50;99.90;;;;;;5054346;28;20025;-67
2022/12/05 13:12:59;;;;;;;8.77;5.70;;;10.50;99.90;;;;;;5054988;28;20640;-67
2022/12/05 13:15:46;;;;;;;12.88;5.95;;;10.50;99.90;;;;;;5054533;28;20394;-67
2022/12/05 13:18:20;;;;;;;15.02;6.38;;;10.50;99.90;;;;;;5054632;28;20525;-68
2022/12/05 13:20:49;;;;;;;13.63;6.38;;;10.50;99.90;;;;;;5054440;28;20056;-67
2022/12/05 13:23:20;;;;;;;12.18;6.65;;;10.50;99.90;;;;;;5054962;28;20033;-67
2022/12/05 13:25:47;;;;;;;17.58;7.35;;;10.50;99.90;;;;;;5054895;28;20043;-67
2022/12/05 13:28:46;;;;;;;10.20;6.15;;;10.50;99.90;;;;;;5054634;28;20033;-67